Time;durP1;ratioP1;P1;durP2;ratioP2;P2;SDS_P1;SDS_P2;PMS_P1;PMS_P2;Temp;Humidity;BMP_temperature;BMP_pressure;BME280_temperature;BME280_humidity;BME280_pressure;Samples;Min_cycle;Max_cycle;Signal;HPM_P1;HPM_P2
2024/01/14 00:02:17;;;;;;;18.98;2.50;;;4.70;99.90;;;;;;5043374;28;20518;-55
2024/01/14 00:04:44;;;;;;;11.52;1.73;;;4.70;99.90;;;;;;5047252;28;20053;-51
2024/01/14 00:07:10;;;;;;;18.50;2.70;;;4.70;99.90;;;;;;5046412;28;20041;-55
2024/01/14 00:09:36;;;;;;;17.20;2.20;;;4.70;99.90;;;;;;5044050;28;20074;-56
2024/01/14 00:12:02;;;;;;;14.98;2.13;;;4.70;99.90;;;;;;5044069;28;20717;-58
2024/01/14 00:14:28;;;;;;;12.40;1.63;;;4.70;99.90;;;;;;5053087;28;20048;-58
2024/01/14 00:16:54;;;;;;;12.88;1.65;;;4.70;99.90;;;;;;5023920;28;20045;-51
2024/01/14 00:19:19;;;;;;;6.93;1.73;;;4.70;99.90;;;;;;5047462;28;20126;-58
2024/01/14 00:21:45;;;;;;;27.15;4.22;;;4.60;99.90;;;;;;5026594;28;20191;-57
2024/01/14 00:24:11;;;;;;;37.45;7.57;;;4.70;99.90;;;;;;5050696;28;20434;-55
2024/01/14 00:26:37;;;;;;;19.05;3.95;;;4.70;99.90;;;;;;5042970;28;20048;-57
2024/01/14 00:29:03;;;;;;;15.40;2.55;;;4.70;99.90;;;;;;5041760;28;20040;-60
2024/01/14 00:31:28;;;;;;;37.78;5.28;;;4.70;99.90;;;;;;5046670;28;20078;-55
2024/01/14 00:33:54;;;;;;;39.50;4.80;;;4.60;99.90;;;;;;5041390;28;20545;-61
2024/01/14 00:36:20;;;;;;;37.60;4.85;;;4.60;99.90;;;;;;5048475;28;20052;-60
2024/01/14 00:38:46;;;;;;;34.97;4.88;;;4.60;99.90;;;;;;5043038;28;20503;-46
2024/01/14 00:41:12;;;;;;;27.92;4.78;;;4.60;99.90;;;;;;5042817;28;20384;-56
2024/01/14 00:43:38;;;;;;;41.58;6.65;;;4.60;99.90;;;;;;5038737;28;20114;-51
2024/01/14 00:46:04;;;;;;;43.33;7.32;;;4.60;99.90;;;;;;5042653;28;20064;-60
2024/01/14 00:48:30;;;;;;;18.25;3.65;;;4.60;99.90;;;;;;5044753;28;20052;-58
2024/01/14 00:50:56;;;;;;;12.77;1.52;;;4.50;99.90;;;;;;5017156;28;20085;-60
2024/01/14 00:53:22;;;;;;;26.63;3.75;;;4.50;99.90;;;;;;5041858;28;20087;-61
2024/01/14 00:55:48;;;;;;;15.50;2.28;;;4.60;99.90;;;;;;5033683;28;20044;-56
2024/01/14 00:58:14;;;;;;;20.80;2.75;;;4.50;99.90;;;;;;5045112;28;20041;-58
2024/01/14 01:00:40;;;;;;;23.95;2.55;;;4.50;99.90;;;;;;5039493;28;20044;-60
2024/01/14 01:03:05;;;;;;;29.90;3.40;;;4.40;99.90;;;;;;5030116;28;20052;-55
2024/01/14 01:05:31;;;;;;;25.63;3.25;;;4.50;99.90;;;;;;5059131;28;20037;-51
2024/01/14 01:07:57;;;;;;;26.23;3.20;;;4.50;99.90;;;;;;5056114;28;20462;-50
2024/01/14 01:10:23;;;;;;;23.42;3.25;;;4.50;99.90;;;;;;5004522;28;20068;-58
2024/01/14 01:12:48;;;;;;;16.85;3.08;;;4.50;99.90;;;;;;5043515;28;20040;-56
2024/01/14 01:15:14;;;;;;;22.70;3.15;;;4.50;99.90;;;;;;5043067;28;20045;-55
2024/01/14 01:17:40;;;;;;;12.55;2.28;;;4.50;99.90;;;;;;5046423;28;20059;-50
2024/01/14 01:20:08;;;;;;;26.40;4.22;;;4.50;99.90;;;;;;5040881;28;20037;-58
2024/01/14 01:22:34;;;;;;;22.80;3.25;;;4.50;99.90;;;;;;5024821;28;20041;-54
2024/01/14 01:25:00;;;;;;;29.65;3.25;;;4.50;99.90;;;;;;5022735;28;20449;-53
2024/01/14 01:27:27;;;;;;;24.95;4.10;;;4.50;99.90;;;;;;5042152;28;20040;-57
2024/01/14 01:29:53;;;;;;;22.42;3.25;;;4.50;99.90;;;;;;5025810;28;20055;-52
2024/01/14 01:32:18;;;;;;;36.35;5.78;;;4.40;99.90;;;;;;5008092;28;20084;-49
2024/01/14 01:34:44;;;;;;;34.83;6.15;;;4.50;99.90;;;;;;5031610;28;20136;-53
2024/01/14 01:37:10;;;;;;;38.53;7.05;;;4.40;99.90;;;;;;5031741;28;20115;-60
2024/01/14 01:39:36;;;;;;;37.03;4.75;;;4.50;99.90;;;;;;5041459;28;20411;-52
2024/01/14 01:42:01;;;;;;;30.67;5.20;;;4.50;99.90;;;;;;5038434;28;20039;-51
2024/01/14 01:44:27;;;;;;;26.80;3.67;;;4.50;99.90;;;;;;5044657;28;20098;-56
2024/01/14 01:46:56;;;;;;;30.65;3.75;;;4.50;99.90;;;;;;5021261;28;20040;-48
2024/01/14 01:49:22;;;;;;;30.42;4.30;;;4.40;99.90;;;;;;5042083;28;20442;-54
2024/01/14 01:51:50;;;;;;;28.38;5.28;;;4.40;99.90;;;;;;5027049;28;20068;-59
2024/01/14 01:54:20;;;;;;;27.17;4.68;;;4.40;99.90;;;;;;5042952;28;20123;-55
2024/01/14 01:56:46;;;;;;;32.95;5.78;;;4.30;99.90;;;;;;5036480;28;20056;-47
2024/01/14 01:59:12;;;;;;;31.05;3.75;;;4.30;99.90;;;;;;5031430;28;20052;-59
2024/01/14 02:01:39;;;;;;;33.33;4.57;;;4.30;99.90;;;;;;5047354;28;20415;-56
2024/01/14 02:04:07;;;;;;;30.65;5.95;;;4.30;99.90;;;;;;5043892;28;20396;-52
2024/01/14 02:06:33;;;;;;;33.33;5.55;;;4.30;99.90;;;;;;5039989;28;20180;-57
2024/01/14 02:08:59;;;;;;;40.80;5.80;;;4.30;99.90;;;;;;5032400;28;20132;-55
2024/01/14 02:11:25;;;;;;;27.70;5.05;;;4.40;99.90;;;;;;5028224;28;20601;-58
2024/01/14 02:13:51;;;;;;;39.55;4.85;;;4.40;99.90;;;;;;5047669;28;20060;-54
2024/01/14 02:16:16;;;;;;;39.78;5.28;;;4.40;99.90;;;;;;5045726;28;20053;-57
2024/01/14 02:18:42;;;;;;;25.17;3.15;;;4.40;99.90;;;;;;5053685;28;20080;-56
2024/01/14 02:21:10;;;;;;;25.23;2.55;;;4.40;99.90;;;;;;5042992;28;20065;-52
2024/01/14 02:23:40;;;;;;;26.98;3.35;;;4.40;99.90;;;;;;5045997;28;20183;-56
2024/01/14 02:26:06;;;;;;;36.13;4.95;;;4.40;99.90;;;;;;5028646;28;20078;-58
2024/01/14 02:28:32;;;;;;;29.35;4.60;;;4.40;99.90;;;;;;5047177;28;20040;-49
2024/01/14 02:30:58;;;;;;;27.42;3.53;;;4.30;99.90;;;;;;5046238;28;20056;-54
2024/01/14 02:33:24;;;;;;;29.15;3.97;;;4.30;99.90;;;;;;5047489;28;20938;-51
2024/01/14 02:35:50;;;;;;;22.23;4.57;;;4.30;99.90;;;;;;5050273;28;20044;-58
2024/01/14 02:38:16;;;;;;;18.55;3.05;;;4.30;99.90;;;;;;5042270;28;20498;-58
2024/01/14 02:40:42;;;;;;;21.50;3.28;;;4.30;99.90;;;;;;5032203;28;20048;-54
2024/01/14 02:43:07;;;;;;;24.75;3.65;;;4.20;99.90;;;;;;5042923;28;20060;-57
2024/01/14 02:45:33;;;;;;;26.27;3.92;;;4.20;99.90;;;;;;5045021;28;20053;-58
2024/01/14 02:47:59;;;;;;;26.00;4.07;;;4.10;99.90;;;;;;5047368;28;20047;-61
2024/01/14 02:50:25;;;;;;;20.00;3.47;;;4.10;99.90;;;;;;5027987;28;20041;-51
2024/01/14 02:52:50;;;;;;;24.00;3.20;;;3.90;99.90;;;;;;5035898;28;20080;-57
2024/01/14 02:55:18;;;;;;;28.40;4.63;;;4.00;99.90;;;;;;5027180;28;20094;-52
2024/01/14 02:57:43;;;;;;;29.38;4.45;;;4.00;99.90;;;;;;5044909;28;20575;-57
2024/01/14 03:00:11;;;;;;;29.40;4.20;;;4.00;99.90;;;;;;5043167;28;20116;-53
2024/01/14 03:02:37;;;;;;;22.90;3.45;;;3.90;99.90;;;;;;5039905;28;20112;-52
2024/01/14 03:05:04;;;;;;;30.63;4.00;;;3.90;99.90;;;;;;5032845;28;20481;-58
2024/01/14 03:07:29;;;;;;;32.28;4.90;;;3.80;99.90;;;;;;5047252;28;20041;-51
2024/01/14 03:09:56;;;;;;;26.80;4.05;;;3.80;99.90;;;;;;5048344;28;20063;-56
2024/01/14 03:12:22;;;;;;;28.17;4.70;;;3.80;99.90;;;;;;5044470;28;20118;-51
2024/01/14 03:14:48;;;;;;;37.97;4.43;;;3.80;99.90;;;;;;5028583;28;20041;-56
2024/01/14 03:17:13;;;;;;;27.52;4.32;;;3.80;99.90;;;;;;5032343;28;20572;-49
2024/01/14 03:19:39;;;;;;;22.17;3.65;;;3.80;99.90;;;;;;5044152;28;20051;-52
2024/01/14 03:22:06;;;;;;;31.33;4.78;;;3.80;99.90;;;;;;5034150;28;20079;-57
2024/01/14 03:24:31;;;;;;;26.50;3.80;;;3.80;99.90;;;;;;5029501;28;20403;-59
2024/01/14 03:26:57;;;;;;;27.38;4.07;;;3.90;99.90;;;;;;5047183;28;20059;-58
2024/01/14 03:29:23;;;;;;;39.92;5.65;;;3.90;99.90;;;;;;5013787;28;20110;-56
2024/01/14 03:31:48;;;;;;;29.23;5.75;;;3.90;99.90;;;;;;5045141;28;20090;-54
2024/01/14 03:34:14;;;;;;;25.92;4.88;;;3.90;99.90;;;;;;5031604;28;20483;-53
2024/01/14 03:36:40;;;;;;;28.10;5.20;;;4.00;99.90;;;;;;5032825;28;20048;-53
2024/01/14 03:39:06;;;;;;;23.65;3.80;;;4.00;99.90;;;;;;5024544;28;20045;-58
2024/01/14 03:41:32;;;;;;;21.60;4.38;;;4.00;99.90;;;;;;5038884;28;20045;-54
2024/01/14 03:43:58;;;;;;;22.30;5.30;;;4.10;99.90;;;;;;5031393;28;20078;-57
2024/01/14 03:46:24;;;;;;;19.30;3.17;;;4.20;99.90;;;;;;5030660;28;20515;-59
2024/01/14 03:48:49;;;;;;;22.92;3.75;;;4.20;99.90;;;;;;5049978;28;20088;-55
2024/01/14 03:51:15;;;;;;;8.13;1.42;;;4.20;99.90;;;;;;5041751;28;20090;-60
2024/01/14 03:53:41;;;;;;;12.82;2.00;;;4.10;99.90;;;;;;5054312;28;20049;-49
2024/01/14 03:56:06;;;;;;;12.00;2.42;;;4.10;99.90;;;;;;5043525;28;20619;-52
2024/01/14 03:58:32;;;;;;;18.13;2.33;;;4.00;99.90;;;;;;5047105;28;20040;-51
2024/01/14 04:00:58;;;;;;;8.73;1.65;;;3.90;99.90;;;;;;5042153;28;20396;-55
2024/01/14 04:03:24;;;;;;;24.45;3.03;;;3.80;99.90;;;;;;5031276;28;20098;-58
2024/01/14 04:05:49;;;;;;;13.13;2.60;;;3.80;99.90;;;;;;5048618;28;20086;-57
2024/01/14 04:08:15;;;;;;;17.05;2.55;;;3.80;99.90;;;;;;5050729;28;20490;-55
2024/01/14 04:10:41;;;;;;;23.15;3.47;;;3.80;99.90;;;;;;5034163;28;20482;-47
2024/01/14 04:13:07;;;;;;;13.07;2.42;;;3.80;99.90;;;;;;5041734;28;21014;-56
2024/01/14 04:15:32;;;;;;;24.00;2.92;;;3.70;99.90;;;;;;5049599;28;20055;-59
2024/01/14 04:17:58;;;;;;;21.77;2.95;;;3.70;99.90;;;;;;5043614;28;20402;-58
2024/01/14 04:20:25;;;;;;;21.95;3.35;;;3.80;99.90;;;;;;5027707;28;20057;-51
2024/01/14 04:22:50;;;;;;;26.58;3.65;;;3.80;99.90;;;;;;5044734;28;20153;-57
2024/01/14 04:25:16;;;;;;;24.38;3.70;;;3.70;99.90;;;;;;5043882;28;20502;-55
2024/01/14 04:27:42;;;;;;;27.90;3.88;;;3.70;99.90;;;;;;5046965;28;20060;-55
2024/01/14 04:30:09;;;;;;;35.10;5.03;;;3.70;99.90;;;;;;5025157;28;20048;-54
2024/01/14 04:32:35;;;;;;;29.67;4.85;;;3.70;99.90;;;;;;5043122;28;20052;-57
2024/01/14 04:35:01;;;;;;;22.58;4.68;;;3.70;99.90;;;;;;5023408;28;20037;-57
2024/01/14 04:37:26;;;;;;;33.47;4.32;;;3.80;99.90;;;;;;5048913;28;20371;-55
2024/01/14 04:39:54;;;;;;;24.90;3.22;;;3.80;99.90;;;;;;5042369;28;20060;-47
2024/01/14 04:42:20;;;;;;;27.52;4.38;;;3.90;99.90;;;;;;5042845;28;20080;-58
2024/01/14 04:44:45;;;;;;;33.67;5.75;;;3.90;99.90;;;;;;5023487;28;20629;-51
2024/01/14 04:47:11;;;;;;;23.40;3.55;;;4.00;99.90;;;;;;5043791;28;20049;-60
2024/01/14 04:49:37;;;;;;;18.83;2.63;;;4.00;99.90;;;;;;5028462;28;20091;-54
2024/01/14 04:52:03;;;;;;;33.53;3.80;;;4.00;99.90;;;;;;5042348;28;20421;-59
2024/01/14 04:54:29;;;;;;;27.02;3.90;;;4.00;99.90;;;;;;5041612;28;20457;-51
2024/01/14 04:56:55;;;;;;;29.77;3.92;;;3.90;99.90;;;;;;5027947;28;20409;-58
2024/01/14 04:59:21;;;;;;;30.90;4.85;;;4.00;99.90;;;;;;5024877;28;20457;-54
2024/01/14 05:01:46;;;;;;;16.85;3.33;;;4.00;99.90;;;;;;5046425;28;20124;-60
2024/01/14 05:04:12;;;;;;;19.15;3.10;;;4.00;99.90;;;;;;5043248;28;20576;-58
2024/01/14 05:06:38;;;;;;;24.30;2.80;;;4.00;99.90;;;;;;5045012;28;20048;-52
2024/01/14 05:09:03;;;;;;;14.30;2.83;;;4.00;99.90;;;;;;5043714;28;20128;-55
2024/01/14 05:11:29;;;;;;;18.20;2.15;;;3.90;99.90;;;;;;5032189;28;20203;-56
2024/01/14 05:13:55;;;;;;;20.33;2.35;;;3.90;99.90;;;;;;5027242;28;20352;-46
2024/01/14 05:16:21;;;;;;;19.40;2.55;;;3.90;99.90;;;;;;5041316;28;20487;-52
2024/01/14 05:18:46;;;;;;;18.63;2.45;;;3.90;99.90;;;;;;5052943;28;20050;-59
2024/01/14 05:21:16;;;;;;;22.05;2.92;;;3.80;99.90;;;;;;5043149;28;20135;-51
2024/01/14 05:23:42;;;;;;;7.77;1.30;;;3.80;99.90;;;;;;5049551;28;20066;-61
2024/01/14 05:26:10;;;;;;;19.55;3.00;;;3.70;99.90;;;;;;5045403;28;20794;-60
2024/01/14 05:28:35;;;;;;;15.05;2.45;;;3.80;99.90;;;;;;5049864;28;20076;-46
2024/01/14 05:31:01;;;;;;;12.65;2.60;;;3.70;99.90;;;;;;5032054;28;20584;-57
2024/01/14 05:33:27;;;;;;;19.13;2.13;;;3.70;99.90;;;;;;5050633;28;20557;-56
2024/01/14 05:35:53;;;;;;;17.05;2.42;;;3.70;99.90;;;;;;5044898;28;20043;-60
2024/01/14 05:38:19;;;;;;;22.63;3.58;;;3.70;99.90;;;;;;5031510;28;20049;-58
2024/01/14 05:40:44;;;;;;;10.00;1.30;;;3.70;99.90;;;;;;5044590;28;20586;-58
2024/01/14 05:43:10;;;;;;;8.02;1.38;;;3.60;99.90;;;;;;5046227;28;20036;-54
2024/01/14 05:45:37;;;;;;;4.63;0.95;;;3.60;99.90;;;;;;5052814;28;20455;-48
2024/01/14 05:48:03;;;;;;;7.30;1.95;;;3.50;99.90;;;;;;5028873;28;20083;-56
2024/01/14 05:50:29;;;;;;;8.20;1.20;;;3.50;99.90;;;;;;5045463;28;20046;-54
2024/01/14 05:52:54;;;;;;;10.73;1.55;;;3.40;99.90;;;;;;5033944;28;20037;-58
2024/01/14 05:55:20;;;;;;;8.65;1.23;;;3.30;99.90;;;;;;5046866;28;20056;-57
2024/01/14 05:57:46;;;;;;;8.73;1.20;;;3.30;99.90;;;;;;5049480;28;20044;-50
2024/01/14 06:00:13;;;;;;;8.48;1.50;;;3.30;99.90;;;;;;5046103;28;20550;-48
2024/01/14 06:02:39;;;;;;;13.65;2.00;;;3.30;99.90;;;;;;5046707;28;20442;-51
2024/01/14 06:05:05;;;;;;;12.95;1.70;;;3.20;99.90;;;;;;5036058;28;20053;-57
2024/01/14 06:07:31;;;;;;;18.92;1.98;;;3.20;99.90;;;;;;5044437;28;20037;-55
2024/01/14 06:09:57;;;;;;;12.98;1.85;;;3.20;99.90;;;;;;5026924;28;20541;-54
2024/01/14 06:12:22;;;;;;;14.25;1.80;;;3.10;99.90;;;;;;5011414;28;20128;-56
2024/01/14 06:14:48;;;;;;;17.65;2.25;;;3.10;99.90;;;;;;5044530;28;20053;-60
2024/01/14 06:17:15;;;;;;;11.07;2.03;;;3.10;99.90;;;;;;5045771;28;20414;-56
2024/01/14 06:19:41;;;;;;;12.95;1.52;;;3.00;99.90;;;;;;5025758;28;20052;-61
2024/01/14 06:22:07;;;;;;;13.13;2.17;;;3.00;99.90;;;;;;5048259;28;20114;-46
2024/01/14 06:24:33;;;;;;;9.05;1.55;;;2.90;99.90;;;;;;5047353;28;20729;-50
2024/01/14 06:26:59;;;;;;;11.55;1.63;;;2.90;99.90;;;;;;5027204;28;20450;-60
2024/01/14 06:29:24;;;;;;;15.30;1.65;;;2.80;99.90;;;;;;5048310;28;20045;-52
2024/01/14 06:31:50;;;;;;;4.95;0.95;;;2.90;99.90;;;;;;5045306;28;20099;-55
2024/01/14 06:34:16;;;;;;;18.90;2.15;;;2.90;99.90;;;;;;5048641;28;20101;-55
2024/01/14 06:36:41;;;;;;;6.43;0.77;;;2.80;99.90;;;;;;5043908;28;20048;-59
2024/01/14 06:39:07;;;;;;;4.82;0.88;;;2.80;99.90;;;;;;5054536;28;20051;-56
2024/01/14 06:41:34;;;;;;;5.78;1.42;;;2.70;99.90;;;;;;5046681;28;20055;-56
2024/01/14 06:43:59;;;;;;;17.67;1.60;;;2.70;99.90;;;;;;5047817;28;20041;-58
2024/01/14 06:46:25;;;;;;;9.20;1.13;;;2.70;99.90;;;;;;5044371;28;20049;-51
2024/01/14 06:48:51;;;;;;;17.98;2.13;;;2.70;99.90;;;;;;5051015;28;20116;-50
2024/01/14 06:51:17;;;;;;;12.43;1.92;;;2.70;99.90;;;;;;5044441;28;20049;-59
2024/01/14 06:53:42;;;;;;;14.27;1.98;;;2.60;99.90;;;;;;5026767;28;20072;-51
2024/01/14 06:56:08;;;;;;;11.50;1.65;;;2.60;99.90;;;;;;5045180;28;20041;-56
2024/01/14 06:58:34;;;;;;;24.13;2.30;;;2.70;99.90;;;;;;5051459;28;20086;-61
2024/01/14 07:01:01;;;;;;;15.65;2.47;;;2.60;99.90;;;;;;5045864;28;20556;-55
2024/01/14 07:03:27;;;;;;;16.55;2.03;;;2.60;99.90;;;;;;5042438;28;20049;-56
2024/01/14 07:05:53;;;;;;;13.38;1.77;;;2.50;99.90;;;;;;5046823;28;20545;-58
2024/01/14 07:08:18;;;;;;;16.50;2.42;;;2.50;99.90;;;;;;5054374;28;20036;-52
2024/01/14 07:10:44;;;;;;;14.02;2.35;;;2.60;99.90;;;;;;5056012;28;20044;-50
2024/01/14 07:13:10;;;;;;;13.25;1.92;;;2.60;99.90;;;;;;5044564;28;20526;-60
2024/01/14 07:15:35;;;;;;;9.43;1.75;;;2.60;99.90;;;;;;5035974;28;20055;-58
2024/01/14 07:18:04;;;;;;;10.95;1.30;;;2.60;99.90;;;;;;5049061;28;20048;-56
2024/01/14 07:20:30;;;;;;;5.90;1.05;;;2.80;99.90;;;;;;5024631;28;20057;-59
2024/01/14 07:22:56;;;;;;;15.20;1.42;;;2.80;99.90;;;;;;5053889;28;20066;-51
2024/01/14 07:25:22;;;;;;;6.60;2.25;;;2.90;99.90;;;;;;5026603;28;20061;-59
2024/01/14 07:27:48;;;;;;;19.55;2.20;;;2.90;99.90;;;;;;5052616;28;20131;-58
2024/01/14 07:30:14;;;;;;;15.32;2.25;;;2.90;99.90;;;;;;5051822;28;20436;-59
2024/01/14 07:32:40;;;;;;;15.02;2.50;;;2.90;99.90;;;;;;5023958;28;20074;-57
2024/01/14 07:35:06;;;;;;;21.67;1.80;;;3.00;99.90;;;;;;5045800;28;20055;-52
2024/01/14 07:37:33;;;;;;;15.60;3.28;;;3.10;99.90;;;;;;5042009;28;20515;-58
2024/01/14 07:40:00;;;;;;;17.63;2.15;;;3.10;99.90;;;;;;5032098;28;20055;-58
2024/01/14 07:42:26;;;;;;;21.20;1.88;;;3.20;99.90;;;;;;5043277;28;20048;-56
2024/01/14 07:44:53;;;;;;;12.35;1.73;;;3.20;99.90;;;;;;5041436;28;20525;-51
2024/01/14 07:47:20;;;;;;;20.40;1.85;;;3.20;99.90;;;;;;5033384;28;20141;-53
2024/01/14 07:49:48;;;;;;;13.82;2.30;;;3.20;99.90;;;;;;5047109;28;20041;-58
2024/01/14 07:52:17;;;;;;;3.45;0.60;;;3.20;99.90;;;;;;5054199;28;20052;-55
2024/01/14 07:54:43;;;;;;;8.63;1.38;;;3.20;99.90;;;;;;5047989;28;20510;-54
2024/01/14 07:57:09;;;;;;;13.00;1.98;;;3.30;99.90;;;;;;5026037;28;20040;-62
2024/01/14 07:59:35;;;;;;;9.10;1.20;;;3.20;99.90;;;;;;5042431;28;20052;-60
2024/01/14 08:02:02;;;;;;;11.90;1.00;;;3.20;99.90;;;;;;5044490;28;20044;-56
2024/01/14 08:04:27;;;;;;;10.07;1.25;;;3.00;99.90;;;;;;5043435;28;20131;-56
2024/01/14 08:06:53;;;;;;;16.88;1.90;;;3.00;99.90;;;;;;5039638;28;20139;-60
2024/01/14 08:09:20;;;;;;;17.40;2.30;;;3.00;99.90;;;;;;5051753;28;20373;-54
2024/01/14 08:11:45;;;;;;;14.05;2.53;;;2.90;99.90;;;;;;5041215;28;20412;-55
2024/01/14 08:14:11;;;;;;;12.80;1.92;;;2.90;99.90;;;;;;5044120;28;20044;-51
2024/01/14 08:16:37;;;;;;;10.30;1.60;;;2.90;99.90;;;;;;5023111;28;20178;-57
2024/01/14 08:19:03;;;;;;;22.30;2.25;;;2.80;99.90;;;;;;5031798;28;20048;-52
2024/01/14 08:21:29;;;;;;;11.32;2.00;;;2.80;99.90;;;;;;5043931;28;20048;-51
2024/01/14 08:23:54;;;;;;;11.57;2.17;;;2.80;99.90;;;;;;5019991;28;20057;-53
2024/01/14 08:26:20;;;;;;;13.18;1.77;;;2.80;99.90;;;;;;5032871;28;20045;-54
2024/01/14 08:28:46;;;;;;;16.13;1.98;;;2.70;99.90;;;;;;5032924;28;20107;-53
2024/01/14 08:31:12;;;;;;;11.95;2.03;;;2.70;99.90;;;;;;5008564;28;20099;-57
2024/01/14 08:33:42;;;;;;;9.43;1.52;;;2.70;99.90;;;;;;5032669;28;20085;-51
2024/01/14 08:36:09;;;;;;;9.20;1.35;;;2.80;99.90;;;;;;5032374;28;20530;-57
2024/01/14 08:38:35;;;;;;;7.28;1.05;;;2.80;99.90;;;;;;5026212;28;20045;-50
2024/01/14 08:41:01;;;;;;;11.43;1.42;;;2.90;99.90;;;;;;4994139;28;20048;-60
2024/01/14 08:43:26;;;;;;;6.57;0.70;;;3.00;99.90;;;;;;5032064;28;20412;-48
2024/01/14 08:45:52;;;;;;;5.65;0.98;;;3.10;99.90;;;;;;5031611;28;20123;-57
2024/01/14 08:48:18;;;;;;;6.72;1.10;;;3.20;99.90;;;;;;5024245;28;20095;-50
2024/01/14 08:50:43;;;;;;;7.57;1.48;;;3.20;99.90;;;;;;5010623;28;20154;-54
2024/01/14 08:53:09;;;;;;;10.95;1.58;;;3.20;99.90;;;;;;5029343;28;20123;-51
2024/01/14 08:55:35;;;;;;;2.92;1.10;;;3.20;99.90;;;;;;5007513;28;20115;-56
2024/01/14 08:58:01;;;;;;;4.28;0.82;;;3.10;99.90;;;;;;5034253;28;20517;-58
2024/01/14 09:00:26;;;;;;;5.18;0.85;;;3.10;99.90;;;;;;5004554;28;20040;-52
2024/01/14 09:02:52;;;;;;;10.75;0.93;;;3.10;99.90;;;;;;5022779;28;20057;-57
2024/01/14 09:05:18;;;;;;;11.70;1.85;;;3.20;99.90;;;;;;5030669;28;20483;-57
2024/01/14 09:07:44;;;;;;;3.30;0.73;;;3.20;99.90;;;;;;5017442;28;20043;-54
2024/01/14 09:10:10;;;;;;;9.63;1.33;;;3.30;99.90;;;;;;5036900;28;20323;-55
2024/01/14 09:12:36;;;;;;;17.60;2.05;;;3.30;99.90;;;;;;5023054;28;20045;-49
2024/01/14 09:15:02;;;;;;;11.82;1.35;;;3.30;99.90;;;;;;5016016;28;20352;-57
2024/01/14 09:17:27;;;;;;;15.65;2.15;;;3.40;99.90;;;;;;5023523;28;20037;-53
2024/01/14 09:19:53;;;;;;;12.13;1.30;;;3.40;99.90;;;;;;5020469;28;20366;-61
2024/01/14 09:22:19;;;;;;;15.40;2.17;;;3.50;99.90;;;;;;5021398;28;20077;-60
2024/01/14 09:24:46;;;;;;;3.85;1.17;;;3.60;99.90;;;;;;5040800;28;20067;-57
2024/01/14 09:27:13;;;;;;;19.95;1.75;;;3.60;99.90;;;;;;5042313;28;20037;-55
2024/01/14 09:29:40;;;;;;;8.55;1.42;;;3.70;99.90;;;;;;5038131;28;20079;-54
2024/01/14 09:32:05;;;;;;;7.15;1.17;;;3.70;99.90;;;;;;5038225;28;20667;-59
2024/01/14 09:34:31;;;;;;;10.82;1.65;;;3.80;99.90;;;;;;5022579;28;20052;-47
2024/01/14 09:36:57;;;;;;;7.03;1.20;;;3.90;99.90;;;;;;5043115;28;20116;-53
2024/01/14 09:39:23;;;;;;;8.35;1.02;;;3.90;99.90;;;;;;5043217;28;20099;-58
2024/01/14 09:42:07;;;;;;;3.45;0.88;;;3.90;99.90;;;;;;5024384;28;20036;-59
2024/01/14 09:44:33;;;;;;;5.07;0.82;;;4.00;99.90;;;;;;5046337;28;20045;-58
2024/01/14 09:47:00;;;;;;;4.28;0.93;;;4.00;99.90;;;;;;5043296;28;20604;-58
2024/01/14 09:49:26;;;;;;;2.53;0.40;;;3.90;99.90;;;;;;5047778;28;20056;-56
2024/01/14 09:51:53;;;;;;;9.57;1.50;;;3.90;99.90;;;;;;5046998;28;20372;-55
2024/01/14 09:54:19;;;;;;;16.17;2.75;;;3.90;99.90;;;;;;5041454;28;20071;-58
2024/01/14 09:56:48;;;;;;;1.25;0.65;;;3.90;99.90;;;;;;5024360;28;20124;-55
2024/01/14 09:59:17;;;;;;;3.80;0.73;;;3.90;99.90;;;;;;5039070;28;20459;-52
2024/01/14 10:01:43;;;;;;;8.43;1.08;;;3.90;99.90;;;;;;5029919;28;20499;-58
2024/01/14 10:04:09;;;;;;;14.68;2.10;;;3.90;99.90;;;;;;5037215;28;20449;-58
2024/01/14 10:06:35;;;;;;;7.90;1.20;;;3.90;99.90;;;;;;5036834;28;20041;-47
2024/01/14 10:09:01;;;;;;;8.57;1.70;;;3.90;99.90;;;;;;5048450;28;20473;-56
2024/01/14 10:11:27;;;;;;;8.40;1.33;;;3.90;99.90;;;;;;5033883;28;20053;-57
2024/01/14 10:13:53;;;;;;;4.32;0.60;;;4.00;99.90;;;;;;5048985;28;20041;-59
2024/01/14 10:16:18;;;;;;;7.40;1.67;;;4.00;99.90;;;;;;5049812;28;20557;-61
2024/01/14 10:18:44;;;;;;;125.55;25.65;;;4.10;99.90;;;;;;5054575;28;20128;-56
2024/01/14 10:21:11;;;;;;;22.60;3.90;;;4.10;99.90;;;;;;5045727;28;20402;-52
2024/01/14 10:23:39;;;;;;;10.02;1.98;;;4.20;99.90;;;;;;5024698;28;20052;-58
2024/01/14 10:26:06;;;;;;;13.10;2.25;;;4.20;99.90;;;;;;5042516;28;20053;-61
2024/01/14 10:28:36;;;;;;;10.43;1.75;;;4.40;99.90;;;;;;5027845;28;20044;-57
2024/01/14 10:31:03;;;;;;;8.57;1.40;;;4.40;99.90;;;;;;5061394;28;20127;-48
2024/01/14 10:33:32;;;;;;;3.97;0.82;;;4.50;99.90;;;;;;5055489;28;20086;-49
2024/01/14 10:36:00;;;;;;;8.83;1.43;;;4.60;99.90;;;;;;5044646;28;20064;-54
2024/01/14 10:38:25;;;;;;;3.03;0.85;;;4.60;99.90;;;;;;5049471;28;20056;-55
2024/01/14 10:40:52;;;;;;;19.15;3.08;;;4.60;99.90;;;;;;5045498;28;20045;-49
2024/01/14 10:43:19;;;;;;;21.65;2.50;;;4.60;99.90;;;;;;5046345;28;20049;-59
2024/01/14 10:45:49;;;;;;;24.60;1.88;;;4.60;99.90;;;;;;5027052;28;20660;-57
2024/01/14 10:48:19;;;;;;;12.68;1.67;;;4.60;99.90;;;;;;5040260;28;20183;-52
2024/01/14 10:50:49;;;;;;;2.88;0.77;;;4.50;99.90;;;;;;5047423;28;20084;-51
2024/01/14 10:53:18;;;;;;;;;;;4.50;99.90;;;;;;5046204;28;20436;-59
2024/01/14 10:55:49;;;;;;;4.53;0.80;;;4.50;99.90;;;;;;5052199;28;19947;-60
2024/01/14 10:58:24;;;;;;;15.15;1.20;;;4.60;99.90;;;;;;5044469;28;20550;-51
2024/01/14 11:00:51;;;;;;;6.38;1.20;;;4.60;99.90;;;;;;5042271;28;20056;-58
2024/01/14 11:03:18;;;;;;;2.20;0.38;;;4.60;99.90;;;;;;5049416;28;20178;-51
2024/01/14 11:05:44;;;;;;;4.50;0.82;;;4.60;99.90;;;;;;5018501;28;20048;-56
2024/01/14 11:08:14;;;;;;;10.52;1.55;;;4.60;99.90;;;;;;5029109;28;20036;-60
2024/01/14 11:10:40;;;;;;;16.05;1.85;;;4.60;99.90;;;;;;5060609;28;20044;-59
2024/01/14 11:13:35;;;;;;;16.63;2.40;;;4.60;99.90;;;;;;5050993;28;20067;-53
2024/01/14 11:16:22;;;;;;;14.38;2.35;;;4.60;99.90;;;;;;5046650;28;20503;-57
2024/01/14 11:18:48;;;;;;;6.70;0.98;;;4.60;99.90;;;;;;5050230;28;20048;-54
2024/01/14 11:21:25;;;;;;;10.40;1.65;;;4.60;99.90;;;;;;5041837;28;20052;-59
2024/01/14 11:23:50;;;;;;;13.18;1.83;;;4.60;99.90;;;;;;5045879;28;20061;-54
2024/01/14 11:26:16;;;;;;;6.35;1.33;;;4.60;99.90;;;;;;5037867;28;20056;-51
2024/01/14 11:28:46;;;;;;;6.15;1.52;;;4.50;99.90;;;;;;5045728;28;20045;-57
2024/01/14 11:31:11;;;;;;;1.63;0.25;;;4.60;99.90;;;;;;5010130;28;20095;-50
2024/01/14 11:33:46;;;;;;;9.18;0.43;;;4.60;99.90;;;;;;5045163;28;20041;-58
2024/01/14 11:36:13;;;;;;;3.03;0.55;;;4.60;99.90;;;;;;5024515;28;20062;-50
2024/01/14 11:38:45;;;;;;;5.07;0.85;;;4.60;99.90;;;;;;5044921;28;20044;-50
2024/01/14 11:41:35;;;;;;;6.63;0.82;;;4.70;99.90;;;;;;5050890;28;20472;-61
2024/01/14 11:44:09;;;;;;;5.07;0.70;;;4.80;99.90;;;;;;5040984;28;20048;-61
2024/01/14 11:46:46;;;;;;;9.00;1.63;;;4.90;99.90;;;;;;5037140;28;20072;-54
2024/01/14 11:49:26;;;;;;;14.15;1.65;;;4.90;99.90;;;;;;5053988;28;20130;-56
2024/01/14 11:52:00;;;;;;;11.52;1.33;;;5.00;99.90;;;;;;5025793;28;20047;-60
2024/01/14 11:54:27;;;;;;;6.63;0.60;;;5.10;99.90;;;;;;5045372;28;20048;-59
2024/01/14 11:56:53;;;;;;;1.52;0.38;;;5.20;99.90;;;;;;5021185;28;20368;-51
2024/01/14 11:59:19;;;;;;;1.58;0.38;;;5.30;99.90;;;;;;5048221;28;20044;-55
2024/01/14 12:01:44;;;;;;;2.28;0.30;;;5.40;99.90;;;;;;5008239;28;20051;-58
2024/01/14 12:04:10;;;;;;;5.18;1.00;;;5.30;99.90;;;;;;5043309;28;20049;-59
2024/01/14 12:06:41;;;;;;;10.93;1.52;;;5.30;99.90;;;;;;5045718;28;20043;-58
2024/01/14 12:09:08;;;;;;;2.03;0.10;;;5.40;99.90;;;;;;5042652;28;20045;-54
2024/01/14 12:11:37;;;;;;;1.92;0.30;;;5.60;99.90;;;;;;5031152;28;20048;-61
2024/01/14 12:14:04;;;;;;;10.10;0.95;;;5.70;99.90;;;;;;5019248;28;20509;-55
2024/01/14 12:16:30;;;;;;;2.90;0.45;;;5.80;99.90;;;;;;5049246;28;20418;-52
2024/01/14 12:18:56;;;;;;;8.45;1.15;;;6.00;99.90;;;;;;5023642;28;20072;-53
2024/01/14 12:21:23;;;;;;;8.20;1.13;;;6.10;99.90;;;;;;5053754;28;20092;-56
2024/01/14 12:23:50;;;;;;;4.97;0.82;;;6.10;99.90;;;;;;5049389;28;20084;-56
2024/01/14 12:26:16;;;;;;;9.48;0.85;;;6.10;99.90;;;;;;5049095;28;20041;-52
2024/01/14 12:28:42;;;;;;;1.45;0.50;;;6.30;99.90;;;;;;5043448;28;20077;-55
2024/01/14 12:31:08;;;;;;;12.18;1.88;;;6.20;99.90;;;;;;5040509;28;20179;-61
2024/01/14 12:33:34;;;;;;;4.80;0.65;;;6.10;99.90;;;;;;5041674;28;20057;-52
2024/01/14 12:36:00;;;;;;;14.07;1.65;;;6.00;99.90;;;;;;5010447;28;20629;-53
2024/01/14 12:38:26;;;;;;;1.02;0.52;;;6.00;99.90;;;;;;5043061;28;20052;-58
2024/01/14 12:40:54;;;;;;;6.07;0.77;;;5.90;99.90;;;;;;5043338;28;20033;-57
2024/01/14 12:43:19;;;;;;;1.40;0.65;;;5.90;99.90;;;;;;5043429;28;20173;-57
2024/01/14 12:45:46;;;;;;;15.77;2.55;;;6.10;99.90;;;;;;5047479;28;20652;-50
2024/01/14 12:48:18;;;;;;;10.25;1.20;;;6.10;99.90;;;;;;5046450;28;20094;-53